Time;durP1;ratioP1;P1;durP2;ratioP2;P2;SDS_P1;SDS_P2;PMS_P1;PMS_P2;Temp;Humidity;BMP_temperature;BMP_pressure;BME280_temperature;BME280_humidity;BME280_pressure;Samples;Min_cycle;Max_cycle;Signal;HPM_P1;HPM_P2
2022/01/05 00:01:09;;;;;;;;;;;1.30;99.90;;;;;;5011449;28;20336;-79
2022/01/05 00:03:35;;;;;;;;;;;1.30;99.90;;;;;;5010857;28;19930;-79
2022/01/05 00:06:00;;;;;;;;;;;1.40;99.90;;;;;;5011339;28;19972;-79
2022/01/05 00:08:26;;;;;;;;;;;1.50;99.90;;;;;;4994640;28;19932;-79
2022/01/05 00:10:52;;;;;;;;;;;1.60;99.90;;;;;;5011317;28;19929;-79
2022/01/05 00:13:18;;;;;;;;;;;1.60;99.90;;;;;;5010163;28;20392;-79
2022/01/05 00:15:43;;;;;;;;;;;1.60;99.90;;;;;;5011073;28;20463;-79
2022/01/05 00:18:09;;;;;;;;;;;1.60;99.90;;;;;;5011078;28;19971;-78
2022/01/05 00:20:34;;;;;;;;;;;1.60;99.90;;;;;;5010925;28;20377;-79
2022/01/05 00:23:00;;;;;;;;;;;1.50;99.90;;;;;;5010036;28;19929;-78
2022/01/05 00:25:25;;;;;;;;;;;1.50;99.90;;;;;;5027204;28;19929;-79
2022/01/05 00:27:51;;;;;;;;;;;1.40;99.90;;;;;;5011171;28;19921;-81
2022/01/05 00:30:16;;;;;;;;;;;1.40;99.90;;;;;;5010925;28;20039;-78
2022/01/05 00:32:42;;;;;;;;;;;1.30;99.90;;;;;;4991234;28;19929;-79
2022/01/05 00:35:07;;;;;;;;;;;1.30;99.90;;;;;;4991147;28;19929;-78
2022/01/05 00:37:33;;;;;;;;;;;1.30;99.90;;;;;;4995062;28;20421;-78
2022/01/05 00:39:58;;;;;;;;;;;1.30;99.90;;;;;;5027279;28;20008;-79
2022/01/05 00:42:24;;;;;;;;;;;1.30;99.90;;;;;;5010332;28;19928;-79
2022/01/05 00:44:49;;;;;;;;;;;1.30;99.90;;;;;;5010200;28;20060;-78
2022/01/05 00:47:16;;;;;;;;;;;1.30;99.90;;;;;;5010761;28;19921;-78
2022/01/05 00:49:41;;;;;;;;;;;1.20;99.90;;;;;;4991107;28;20012;-78
2022/01/05 00:52:07;;;;;;;;;;;1.20;99.90;;;;;;4976266;28;19969;-78
2022/01/05 00:54:32;;;;;;;;;;;1.20;99.90;;;;;;4993810;28;20263;-79
2022/01/05 00:56:58;;;;;;;;;;;1.20;99.90;;;;;;4995372;28;19925;-79
2022/01/05 00:59:24;;;;;;;;;;;1.10;99.90;;;;;;4997924;28;19925;-78
2022/01/05 01:01:50;;;;;;;;;;;1.10;99.90;;;;;;5014233;28;19921;-79
2022/01/05 01:04:15;;;;;;;;;;;1.10;99.90;;;;;;4997474;28;20016;-79
2022/01/05 01:06:41;;;;;;;;;;;1.10;99.90;;;;;;5014147;28;19976;-79
2022/01/05 01:09:07;;;;;;;;;;;1.10;99.90;;;;;;5014190;28;20393;-79
2022/01/05 01:11:33;;;;;;;;;;;1.10;99.90;;;;;;5013784;28;19948;-79
2022/01/05 01:13:58;;;;;;;;;;;1.20;99.90;;;;;;5013910;28;20297;-79
2022/01/05 01:16:23;;;;;;;;;;;1.20;99.90;;;;;;5014149;28;19921;-79
2022/01/05 01:18:49;;;;;;;;;;;1.20;99.90;;;;;;5013809;28;20373;-79
2022/01/05 01:21:15;;;;;;;;;;;1.20;99.90;;;;;;5013958;28;19921;-78
2022/01/05 01:23:43;;;;;;;;;;;1.20;99.90;;;;;;4997029;28;19971;-78
2022/01/05 01:26:08;;;;;;;;;;;1.20;99.90;;;;;;4997668;28;19929;-78
2022/01/05 01:28:34;;;;;;;;;;;1.20;99.90;;;;;;4997129;28;19926;-79
2022/01/05 01:30:59;;;;;;;;;;;1.20;99.90;;;;;;5013733;28;19921;-79
2022/01/05 01:33:25;;;;;;;;;;;1.20;99.90;;;;;;4993661;28;19922;-78
2022/01/05 01:35:50;;;;;;;;;;;1.10;99.90;;;;;;4993997;28;20390;-78
2022/01/05 01:38:16;;;;;;;;;;;1.10;99.90;;;;;;4977736;28;20274;-78
2022/01/05 01:40:41;;;;;;;;;;;1.10;99.90;;;;;;4993922;28;19922;-78
2022/01/05 01:43:07;;;;;;;;;;;1.10;99.90;;;;;;5011855;28;19929;-78
2022/01/05 01:45:34;;;;;;;;;;;1.10;99.90;;;;;;5029815;28;20349;-78
2022/01/05 01:47:59;;;;;;;;;;;1.10;99.90;;;;;;5029652;28;19922;-78
2022/01/05 01:50:25;;;;;;;;;;;1.10;99.90;;;;;;5013263;28;19992;-78
2022/01/05 01:52:50;;;;;;;;;;;1.00;99.90;;;;;;5012955;28;19921;-78
2022/01/05 01:55:16;;;;;;;;;;;1.00;99.90;;;;;;4996729;28;19922;-79
2022/01/05 01:57:42;;;;;;;;;;;1.00;99.90;;;;;;4997115;28;19964;-78
2022/01/05 02:00:09;;;;;;;;;;;0.90;99.90;;;;;;5013130;28;20000;-78
2022/01/05 02:02:35;;;;;;;;;;;0.90;99.90;;;;;;5013038;28;19921;-78
2022/01/05 02:05:01;;;;;;;;;;;0.90;99.90;;;;;;5013011;28;19921;-78
2022/01/05 02:07:28;;;;;;;;;;;0.90;99.90;;;;;;5012472;28;21289;-79
2022/01/05 02:09:54;;;;;;;;;;;0.90;99.90;;;;;;5011862;28;20312;-78
2022/01/05 02:12:19;;;;;;;;;;;0.90;99.90;;;;;;5029362;28;19922;-78
2022/01/05 02:14:44;;;;;;;;;;;0.90;99.90;;;;;;5012372;28;19965;-79
2022/01/05 02:17:19;;;;;;;;;;;0.90;99.90;;;;;;4993127;28;19926;-78
2022/01/05 02:19:44;;;;;;;;;;;0.90;99.90;;;;;;4993176;28;19921;-79
2022/01/05 02:22:10;;;;;;;;;;;1.00;99.90;;;;;;4996916;28;20382;-79
2022/01/05 02:24:35;;;;;;;;;;;0.90;99.90;;;;;;5011749;28;19944;-79
2022/01/05 02:27:01;;;;;;;;;;;1.00;99.90;;;;;;5011707;28;19925;-78
2022/01/05 02:29:26;;;;;;;;;;;1.00;99.90;;;;;;4991768;28;20073;-79
2022/01/05 02:31:52;;;;;;;;;;;1.00;99.90;;;;;;4991977;28;20008;-78
2022/01/05 02:34:17;;;;;;;;;;;1.00;99.90;;;;;;4991712;28;19922;-78
2022/01/05 02:36:43;;;;;;;;;;;1.00;99.90;;;;;;5028232;28;19929;-79
2022/01/05 02:39:09;;;;;;;;;;;1.00;99.90;;;;;;5011451;28;19922;-78
2022/01/05 02:41:34;;;;;;;;;;;1.00;99.90;;;;;;4991144;28;20222;-78
2022/01/05 02:44:00;;;;;;;;;;;1.00;99.90;;;;;;4988636;28;19960;-78
2022/01/05 02:46:25;;;;;;;;;;;1.20;99.90;;;;;;5011283;28;19940;-79
2022/01/05 02:48:52;;;;;;;;;;;1.30;99.90;;;;;;5011218;28;20312;-80
2022/01/05 02:51:17;;;;;;;;;;;1.50;99.90;;;;;;5011290;28;19928;-79
2022/01/05 02:53:43;;;;;;;;;;;1.60;99.90;;;;;;5010775;28;20289;-79
2022/01/05 02:56:09;;;;;;;;;;;1.70;99.90;;;;;;5011315;28;20432;-78
2022/01/05 02:58:35;;;;;;;;;;;1.70;99.90;;;;;;5010587;28;19922;-78
2022/01/05 03:01:00;;;;;;;;;;;1.80;99.90;;;;;;4995156;28;19927;-81
2022/01/05 03:03:26;;;;;;;;;;;1.80;99.90;;;;;;4994873;28;19921;-80
2022/01/05 03:05:51;;;;;;;;;;;1.80;99.90;;;;;;4994911;28;19921;-80
2022/01/05 03:08:17;;;;;;;;;;;1.90;99.90;;;;;;5011172;28;20424;-80
2022/01/05 03:10:42;;;;;;;;;;;1.80;99.90;;;;;;4995086;28;19921;-80
2022/01/05 03:13:08;;;;;;;;;;;1.80;99.90;;;;;;4994056;28;19922;-81
2022/01/05 03:15:35;;;;;;;;;;;1.80;99.90;;;;;;4994965;28;20412;-81
2022/01/05 03:18:02;;;;;;;;;;;1.80;99.90;;;;;;5011148;28;19922;-81
2022/01/05 03:20:29;;;;;;;;;;;1.90;99.90;;;;;;4994666;28;20004;-81
2022/01/05 03:22:55;;;;;;;;;;;2.00;99.90;;;;;;4993734;28;20073;-79
2022/01/05 03:25:23;;;;;;;;;;;2.00;99.90;;;;;;5009597;23;1696742;-77
2022/01/05 03:27:52;;;;;;;;;;;2.10;99.90;;;;;;5048128;28;19921;-76
2022/01/05 03:30:19;;;;;;;;;;;2.10;99.90;;;;;;5054248;28;19967;-76
2022/01/05 03:35:27;;;;;;;;;;;2.20;99.90;;;;;;5058157;28;19963;-76
2022/01/05 03:37:53;;;;;;;;;;;2.20;99.90;;;;;;5034839;28;19959;-77
2022/01/05 03:40:19;;;;;;;;;;;2.30;99.90;;;;;;5034711;28;19967;-77
2022/01/05 03:42:44;;;;;;;;;;;2.20;99.90;;;;;;5020774;28;19928;-76
2022/01/05 03:45:13;;;;;;;;;;;2.30;99.90;;;;;;5034608;28;19935;-76
2022/01/05 03:47:42;;;;;;;;;;;2.30;99.90;;;;;;5033758;28;19921;-77
2022/01/05 03:50:10;;;;;;;;;;;2.40;99.90;;;;;;5034306;28;19925;-77
2022/01/05 03:52:35;;;;;;;;;;;2.50;99.90;;;;;;5033518;28;19921;-77
2022/01/05 03:55:02;;;;;;;;;;;2.50;99.90;;;;;;5034644;28;19928;-76
2022/01/05 03:57:28;;;;;;;;;;;2.60;99.90;;;;;;5034248;28;20011;-76
2022/01/05 03:59:53;;;;;;;;;;;2.60;99.90;;;;;;5034084;28;20062;-76
2022/01/05 04:02:20;;;;;;;;;;;2.60;99.90;;;;;;5033602;28;20389;-76
2022/01/05 04:04:46;;;;;;;;;;;2.60;99.90;;;;;;5033320;28;20403;-76
2022/01/05 04:07:16;;;;;;;;;;;2.80;99.90;;;;;;5034746;28;19920;-77
2022/01/05 04:09:41;;;;;;;;;;;2.80;99.90;;;;;;5033927;28;19925;-76
2022/01/05 04:12:07;;;;;;;;;;;2.80;99.90;;;;;;5024346;28;19928;-76
2022/01/05 04:14:33;;;;;;;;;;;2.80;99.90;;;;;;5029586;28;19928;-76
2022/01/05 04:16:58;;;;;;;;;;;2.70;99.90;;;;;;5033117;28;19925;-77
2022/01/05 04:19:24;;;;;;;;;;;2.80;99.90;;;;;;5034239;28;19925;-77
2022/01/05 04:21:50;;;;;;;;;;;2.70;99.90;;;;;;5033995;28;19925;-76
2022/01/05 04:24:16;;;;;;;;;;;2.90;99.90;;;;;;5032997;28;19982;-76
2022/01/05 04:26:41;;;;;;;;;;;2.90;99.90;;;;;;5033486;28;19921;-76
2022/01/05 04:29:10;;;;;;;;;;;3.20;99.90;;;;;;5033948;28;19925;-77
2022/01/05 04:31:39;;;;;;;;;;;3.10;99.90;;;;;;5034144;28;19925;-76
2022/01/05 04:34:07;;;;;;;;;;;3.10;99.90;;;;;;5037195;28;20342;-77
2022/01/05 04:36:33;;;;;;;;;;;3.20;99.90;;;;;;5037661;28;19999;-76
2022/01/05 04:38:58;;;;;;;;;;;3.30;99.90;;;;;;5037234;28;20024;-76
2022/01/05 04:41:24;;;;;;;;;;;3.30;99.90;;;;;;5037302;28;19927;-77
2022/01/05 04:43:50;;;;;;;;;;;3.30;99.90;;;;;;5027522;28;20332;-77
2022/01/05 04:46:15;;;;;;;;;;;3.40;99.90;;;;;;5017724;28;19978;-76
2022/01/05 04:48:42;;;;;;;;;;;3.40;99.90;;;;;;5022416;28;19924;-77
2022/01/05 04:51:07;;;;;;;;;;;3.40;99.90;;;;;;5053408;28;19921;-77
2022/01/05 04:53:33;;;;;;;;;;;3.40;99.90;;;;;;5030467;28;19928;-76
2022/01/05 04:55:59;;;;;;;;;;;3.20;99.90;;;;;;5017468;28;19932;-77
2022/01/05 04:58:24;;;;;;;;;;;3.20;99.90;;;;;;5017691;28;20023;-77
2022/01/05 05:00:50;;;;;;;;;;;3.10;99.90;;;;;;5027535;28;19921;-76
2022/01/05 05:03:16;;;;;;;;;;;3.20;99.90;;;;;;5036075;28;19951;-76
2022/01/05 05:05:41;;;;;;;;;;;3.20;99.90;;;;;;5037321;28;19975;-76
2022/01/05 05:08:07;;;;;;;;;;;3.30;99.90;;;;;;5037556;28;20015;-76
2022/01/05 05:10:32;;;;;;;;;;;3.30;99.90;;;;;;5037046;28;20415;-76
2022/01/05 05:12:58;;;;;;;;;;;3.30;99.90;;;;;;5021724;28;19971;-76
2022/01/05 05:15:24;;;;;;;;;;;3.40;99.90;;;;;;5036690;28;19921;-76
2022/01/05 05:17:54;;;;;;;;;;;3.50;99.90;;;;;;5036941;28;19927;-76
2022/01/05 05:20:20;;;;;;;;;;;3.50;99.90;;;;;;5037477;28;20330;-76
2022/01/05 05:22:49;;;;;;;;;;;3.50;99.90;;;;;;5036972;28;19921;-76
2022/01/05 05:25:14;;;;;;;;;;;3.60;99.90;;;;;;5036735;28;19978;-76
2022/01/05 05:27:40;;;;;;;;;;;3.70;99.90;;;;;;5036219;28;19964;-76
2022/01/05 05:30:09;;;;;;;;;;;3.70;99.90;;;;;;5037198;28;20011;-76
2022/01/05 05:32:35;;;;;;;;;;;3.80;99.90;;;;;;5036539;28;19973;-76
2022/01/05 05:35:01;;;;;;;;;;;3.90;99.90;;;;;;5036192;28;19921;-76
2022/01/05 05:37:28;;;;;;;;;;;3.90;99.90;;;;;;5036406;28;19921;-77
2022/01/05 05:39:58;;;;;;;;;;;4.00;99.90;;;;;;5036284;28;20410;-76
2022/01/05 05:42:25;;;;;;;;;;;4.00;99.90;;;;;;5036920;28;20287;-76
2022/01/05 05:44:53;;;;;;;;;;;4.00;99.90;;;;;;5034325;28;19921;-76
2022/01/05 05:47:19;;;;;;;;;;;4.00;99.90;;;;;;5036494;28;20415;-76
2022/01/05 05:49:45;;;;;;;;;;;3.90;99.90;;;;;;5035570;28;19925;-76
2022/01/05 05:52:14;;;;;;;;;;;4.00;99.90;;;;;;5036721;28;19920;-76
2022/01/05 05:54:40;;;;;;;;;;;4.00;99.90;;;;;;5035477;28;19978;-77
2022/01/05 05:57:06;;;;;;;;;;;4.00;99.90;;;;;;5035428;28;19927;-75
2022/01/05 05:59:32;;;;;;;;;;;4.10;99.90;;;;;;5036225;28;20351;-77
2022/01/05 06:01:58;;;;;;;;;;;4.20;99.90;;;;;;5035869;28;19971;-76
2022/01/05 06:04:27;;;;;;;;;;;4.20;99.90;;;;;;5023350;28;19925;-76
2022/01/05 06:06:53;;;;;;;;;;;4.20;99.90;;;;;;5016334;28;19921;-75
2022/01/05 06:09:21;;;;;;;;;;;4.20;99.90;;;;;;5019217;28;19944;-76
2022/01/05 06:11:47;;;;;;;;;;;4.20;99.90;;;;;;5026322;28;20360;-76
2022/01/05 06:14:13;;;;;;;;;;;4.10;99.90;;;;;;5035619;28;19967;-76
2022/01/05 06:16:43;;;;;;;;;;;4.00;99.90;;;;;;5035987;28;20447;-75
2022/01/05 06:19:11;;;;;;;;;;;4.00;99.90;;;;;;5035629;28;19921;-77
2022/01/05 06:21:39;;;;;;;;;;;3.90;99.90;;;;;;5035079;28;19920;-76
2022/01/05 06:24:11;;;;;;;;;;;4.00;99.90;;;;;;5050902;28;19928;-77
2022/01/05 06:26:36;;;;;;;;;;;4.00;99.90;;;;;;5036103;28;19929;-75
2022/01/05 06:29:12;;;;;;;;;;;4.00;99.90;;;;;;5035749;28;19925;-76
2022/01/05 06:31:38;;;;;;;;;;;4.00;99.90;;;;;;5035288;28;19979;-76
2022/01/05 06:34:04;;;;;;;;;;;3.90;99.90;;;;;;5035131;28;19956;-76
2022/01/05 06:36:29;;;;;;;;;;;3.90;99.90;;;;;;5016165;28;19932;-76
2022/01/05 06:38:55;;;;;;;;;;;3.90;99.90;;;;;;5015808;28;20329;-78
2022/01/05 06:41:23;;;;;;;;;;;3.90;99.90;;;;;;5015359;28;19921;-75
2022/01/05 06:43:48;;;;;;;;;;;3.80;99.90;;;;;;5015980;28;20290;-75
2022/01/05 06:46:14;;;;;;;;;;;3.90;99.90;;;;;;5015808;28;19921;-75
2022/01/05 06:48:45;;;;;;;;;;;3.80;99.90;;;;;;5029516;28;19924;-76
2022/01/05 06:51:10;;;;;;;;;;;3.80;99.90;;;;;;5035013;28;20411;-76
2022/01/05 06:53:37;;;;;;;;;;;3.80;99.90;;;;;;5034650;28;20048;-76
2022/01/05 06:56:03;;;;;;;;;;;3.70;99.90;;;;;;5034856;28;20284;-76
2022/01/05 06:58:29;;;;;;;;;;;3.70;99.90;;;;;;5034779;28;19921;-76
2022/01/05 07:00:55;;;;;;;;;;;3.70;99.90;;;;;;5028126;28;19971;-76
2022/01/05 07:03:27;;;;;;;;;;;3.60;99.90;;;;;;5015915;28;19921;-77
2022/01/05 07:05:52;;;;;;;;;;;3.60;99.90;;;;;;5015435;28;20015;-76
2022/01/05 07:08:19;;;;;;;;;;;3.60;99.90;;;;;;5015493;28;19927;-77
2022/01/05 07:10:45;;;;;;;;;;;3.60;99.90;;;;;;5020208;28;19920;-77
2022/01/05 07:13:10;;;;;;;;;;;3.60;99.90;;;;;;5034550;28;20376;-76
2022/01/05 07:15:43;;;;;;;;;;;3.60;99.90;;;;;;5035312;28;20125;-76
2022/01/05 07:18:12;;;;;;;;;;;3.60;99.90;;;;;;5034183;28;19925;-77
2022/01/05 07:20:38;;;;;;;;;;;3.60;99.90;;;;;;5028022;28;19928;-77
2022/01/05 07:23:08;;;;;;;;;;;3.60;99.90;;;;;;5034575;28;19921;-77
2022/01/05 07:25:34;;;;;;;;;;;3.70;99.90;;;;;;5034546;28;19970;-76
2022/01/05 07:28:02;;;;;;;;;;;3.60;99.90;;;;;;5033015;28;20007;-77
2022/01/05 07:30:28;;;;;;;;;;;3.80;99.90;;;;;;5033867;28;19932;-77
2022/01/05 07:32:54;;;;;;;;;;;3.80;99.90;;;;;;5034077;28;20380;-77
2022/01/05 07:35:24;;;;;;;;;;;3.80;99.90;;;;;;5034333;28;19932;-77
2022/01/05 07:37:52;;;;;;;;;;;3.90;99.90;;;;;;5051393;28;19921;-77
2022/01/05 07:40:23;;;;;;;;;;;4.00;99.90;;;;;;5047391;28;20022;-77
2022/01/05 07:42:52;;;;;;;;;;;4.00;99.90;;;;;;5033756;28;20399;-77
2022/01/05 07:45:18;;;;;;;;;;;4.00;99.90;;;;;;5033716;28;19921;-76
2022/01/05 07:47:44;;;;;;;;;;;4.10;99.90;;;;;;5034253;28;19943;-77
2022/01/05 07:50:14;;;;;;;;;;;4.10;99.90;;;;;;5034182;28;20370;-76
2022/01/05 07:52:45;;;;;;;;;;;4.20;99.90;;;;;;5033148;28;20027;-76
2022/01/05 07:55:11;;;;;;;;;;;4.20;99.90;;;;;;5034021;28;19967;-76
2022/01/05 07:57:37;;;;;;;;;;;4.20;99.90;;;;;;5034132;28;20346;-76
2022/01/05 08:00:05;;;;;;;;;;;4.20;99.90;;;;;;5033823;28;19972;-77
2022/01/05 08:02:31;;;;;;;;;;;4.20;99.90;;;;;;5032168;28;19920;-78
2022/01/05 08:04:57;;;;;;;;;;;4.30;99.90;;;;;;5033746;28;20404;-77
2022/01/05 08:07:26;;;;;;;;;;;4.30;99.90;;;;;;5049630;28;19925;-77
2022/01/05 08:10:00;;;;;;;;;;;4.40;99.90;;;;;;5028024;28;20300;-78
2022/01/05 08:13:18;;;;;;;;;;;;;;;;;;;;;
2022/01/05 08:16:02;;;;;;;;;;;4.50;99.90;;;;;;5033434;28;19967;-77
2022/01/05 08:21:58;;;;;;;;;;;4.40;99.90;;;;;;5010775;28;20380;-78
2022/01/05 08:24:27;;;;;;;;;;;4.50;99.90;;;;;;5044106;28;19921;-77
2022/01/05 08:26:58;;;;;;;;;;;4.50;99.90;;;;;;5043987;28;19921;-77
2022/01/05 08:29:24;;;;;;;;;;;4.40;99.90;;;;;;5050136;28;19947;-77
2022/01/05 08:31:50;;;;;;;;;;;4.50;99.90;;;;;;5040241;28;20368;-77
2022/01/05 08:34:18;;;;;;;;;;;4.70;99.90;;;;;;5037788;28;20361;-77
2022/01/05 08:36:46;;;;;;;;;;;4.70;99.90;;;;;;5031509;28;20384;-77
2022/01/05 08:39:13;;;;;;;;;;;4.60;99.90;;;;;;5033703;28;19943;-78
2022/01/05 08:41:38;;;;;;;;;;;4.70;99.90;;;;;;5030256;28;19920;-76
2022/01/05 08:44:04;;;;;;;;;;;4.70;99.90;;;;;;5029708;28;19921;-79
2022/01/05 08:46:30;;;;;;;;;;;4.70;99.90;;;;;;5034205;28;20343;-78
2022/01/05 08:48:59;;;;;;;;;;;4.70;99.90;;;;;;5026569;28;19970;-78
2022/01/05 08:51:24;;;;;;;;;;;4.70;99.90;;;;;;5025564;28;20020;-77
2022/01/05 08:53:50;;;;;;;;;;;4.70;99.90;;;;;;5020898;28;20066;-77
2022/01/05 08:56:16;;;;;;;;;;;4.70;99.90;;;;;;5030801;28;19921;-77
2022/01/05 08:58:41;;;;;;;;;;;4.80;99.90;;;;;;5021975;28;20272;-77
2022/01/05 09:01:10;;;;;;;;;;;4.80;99.90;;;;;;5016072;28;19976;-77
2022/01/05 09:03:37;;;;;;;;;;;4.80;99.90;;;;;;5015883;28;19924;-78
2022/01/05 09:06:04;;;;;;;;;;;4.80;99.90;;;;;;5031405;28;19920;-77
2022/01/05 09:08:29;;;;;;;;;;;4.80;99.90;;;;;;5033703;28;19936;-78
2022/01/05 09:10:55;;;;;;;;;;;4.80;99.90;;;;;;5033430;28;19920;-78
2022/01/05 09:13:24;;;;;;;;;;;4.80;99.90;;;;;;5032525;28;19928;-78
2022/01/05 09:15:50;;;;;;;;;;;4.90;99.90;;;;;;5033718;28;19975;-77
2022/01/05 09:18:16;;;;;;;;;;;5.00;99.90;;;;;;5016543;28;19921;-77
2022/01/05 09:20:41;;;;;;;;;;;4.90;99.90;;;;;;5017694;28;19922;-78
2022/01/05 09:23:10;;;;;;;;;;;4.90;99.90;;;;;;5019733;28;19928;-77
2022/01/05 09:25:52;;;;;;;;;;;5.00;99.90;;;;;;5035588;28;19925;-78
2022/01/05 09:28:26;;;;;;;;;;;5.00;99.90;;;;;;5038638;28;20304;-79
2022/01/05 09:31:06;;;;;;;;;;;5.00;99.90;;;;;;5038651;28;19963;-79
2022/01/05 09:33:38;;;;;;;;;;;5.10;99.90;;;;;;5028621;28;20062;-78
2022/01/05 09:36:16;;;;;;;;;;;5.10;99.90;;;;;;5025539;28;19936;-77
2022/01/05 09:43:57;;;;;;;;;;;5.10;99.90;;;;;;5049116;28;19932;-77
2022/01/05 09:46:31;;;;;;;;;;;5.10;99.90;;;;;;5036256;28;20013;-76
2022/01/05 09:48:59;;;;;;;;;;;5.20;99.90;;;;;;5028905;28;19967;-77
2022/01/05 09:51:28;;;;;;;;;;;5.20;99.90;;;;;;5033979;28;19921;-76
2022/01/05 09:53:54;;;;;;;;;;;5.30;99.90;;;;;;5036646;28;20403;-76
2022/01/05 09:56:19;;;;;;;;;;;5.40;99.90;;;;;;5036231;28;19932;-77
2022/01/05 09:58:45;;;;;;;;;;;5.30;99.90;;;;;;5035447;28;19924;-76
2022/01/05 10:01:11;;;;;;;;;;;5.30;99.90;;;;;;5036124;28;19920;-77
2022/01/05 10:03:36;;;;;;;;;;;5.30;99.90;;;;;;5030003;28;19968;-77
2022/01/05 10:06:02;;;;;;;;;;;5.40;99.90;;;;;;5033226;28;20214;-78
2022/01/05 10:08:33;;;;;;;;;;;5.40;99.90;;;;;;5034835;28;19921;-77
2022/01/05 10:10:59;;;;;;;;;;;5.40;99.90;;;;;;5030275;28;19920;-77
2022/01/05 10:13:25;;;;;;;;;;;5.40;99.90;;;;;;5034056;28;20016;-77
2022/01/05 10:15:51;;;;;;;;;;;5.50;99.90;;;;;;5034561;28;20010;-77
2022/01/05 10:18:18;;;;;;;;;;;5.50;99.90;;;;;;5032721;28;20030;-77
2022/01/05 10:20:54;;;;;;;;;;;5.60;99.90;;;;;;5036004;28;20296;-76
2022/01/05 10:23:35;;;;;;;;;;;5.60;99.90;;;;;;5035724;28;19929;-77
2022/01/05 10:26:18;;;;;;;;;;;5.60;99.90;;;;;;5035362;28;20391;-76
2022/01/05 10:28:47;;;;;;;;;;;5.70;99.90;;;;;;5027389;28;19933;-77
2022/01/05 10:31:14;;;;;;;;;;;5.70;99.90;;;;;;5028285;28;19982;-76
2022/01/05 10:33:40;;;;;;;;;;;5.70;99.90;;;;;;5047159;28;19925;-77
2022/01/05 10:36:05;;;;;;;;;;;5.80;99.90;;;;;;5051533;28;19943;-77
2022/01/05 10:38:31;;;;;;;;;;;5.80;99.90;;;;;;5023389;28;19921;-77
2022/01/05 10:40:56;;;;;;;;;;;5.90;99.90;;;;;;5033085;28;20311;-76
2022/01/05 10:43:24;;;;;;;;;;;5.90;99.90;;;;;;5031392;28;19921;-77
2022/01/05 10:45:53;;;;;;;;;;;5.90;99.90;;;;;;5027427;28;19928;-77
2022/01/05 10:48:19;;;;;;;;;;;5.90;99.90;;;;;;5021248;28;19921;-78
2022/01/05 10:50:46;;;;;;;;;;;5.90;99.90;;;;;;5035117;28;19979;-79
2022/01/05 10:53:22;;;;;;;;;;;5.80;99.90;;;;;;5021444;28;20412;-79
2022/01/05 10:55:48;;;;;;;;;;;5.70;99.90;;;;;;5036135;28;19924;-77
2022/01/05 10:58:17;;;;;;;;;;;5.70;99.90;;;;;;5034895;28;19921;-76
2022/01/05 11:00:53;;;;;;;;;;;5.60;99.90;;;;;;5033630;28;20018;-74
2022/01/05 11:03:23;;;;;;;;;;;5.60;99.90;;;;;;5051266;28;20303;-77
2022/01/05 11:06:06;;;;;;;;;;;5.60;99.90;;;;;;5035609;28;19920;-76
2022/01/05 11:08:33;;;;;;;;;;;5.70;99.90;;;;;;5028829;28;19928;-76
2022/01/05 11:10:58;;;;;;;;;;;5.80;99.90;;;;;;5035224;28;19921;-77
2022/01/05 11:13:32;;;;;;;;;;;5.90;99.90;;;;;;5031910;28;19921;-76
2022/01/05 11:15:58;;;;;;;;;;;6.00;99.90;;;;;;5034059;28;20292;-76
2022/01/05 11:18:24;;;;;;;;;;;6.10;99.90;;;;;;5063271;28;19931;-76
2022/01/05 11:21:05;;;;;;;;;;;6.20;99.90;;;;;;5051378;28;19925;-76
2022/01/05 11:23:36;;;;;;;;;;;6.40;99.90;;;;;;5054500;28;19969;-76
2022/01/05 11:26:02;;;;;;;;;;;6.50;99.90;;;;;;5046648;28;19995;-75
2022/01/05 11:28:28;;;;;;;;;;;6.80;99.90;;;;;;5029732;28;20416;-77
2022/01/05 11:30:55;;;;;;;;;;;7.10;99.90;;;;;;5022069;28;20011;-74
2022/01/05 11:33:21;;;;;;;;;;;7.30;99.90;;;;;;5036025;28;19927;-76
2022/01/05 11:35:47;;;;;;;;;;;7.30;99.90;;;;;;5016751;28;19936;-76
2022/01/05 11:38:13;;;;;;;;;;;7.40;99.90;;;;;;5015690;28;19928;-75
2022/01/05 11:40:40;;;;;;;;;;;7.50;99.90;;;;;;5016196;28;19921;-76
2022/01/05 11:43:07;;;;;;;;;;;7.70;99.90;;;;;;5033160;28;19921;-76
2022/01/05 11:45:39;;;;;;;;;;;7.80;99.90;;;;;;5047797;28;19928;-76
2022/01/05 11:48:16;;;;;;;;;;;7.70;99.90;;;;;;5014611;28;20404;-76
2022/01/05 11:50:52;;;;;;;;;;;7.60;99.90;;;;;;5014783;28;20012;-75
2022/01/05 11:53:31;;;;;;;;;;;7.40;99.90;;;;;;5019215;28;20369;-76
2022/01/05 11:56:00;;;;;;;;;;;7.30;99.90;;;;;;5029086;28;19941;-77
2022/01/05 11:58:26;;;;;;;;;;;7.10;99.90;;;;;;5018460;28;20004;-76
2022/01/05 12:01:10;;;;;;;;;;;7.00;99.90;;;;;;5025701;28;19921;-77
2022/01/05 12:03:58;;;;;;;;;;;7.20;99.90;;;;;;5040419;28;20285;-77
2022/01/05 12:06:34;;;;;;;;;;;7.60;99.90;;;;;;5026369;28;19921;-76
2022/01/05 12:09:03;;;;;;;;;;;7.70;99.90;;;;;;5028711;28;20409;-77
2022/01/05 12:11:33;;;;;;;;;;;7.40;99.90;;;;;;5034250;28;19924;-77
2022/01/05 12:13:59;;;;;;;;;;;7.30;99.90;;;;;;5020651;28;20336;-77
2022/01/05 12:16:25;;;;;;;;;;;7.10;99.90;;;;;;5024655;28;20007;-77
2022/01/05 12:19:07;;;;;;;;;;;7.00;99.90;;;;;;5028290;28;19963;-77
2022/01/05 12:21:46;;;;;;;;;;;6.90;99.90;;;;;;5017501;28;20300;-77
2022/01/05 12:24:14;;;;;;;;;;;6.80;99.90;;;;;;5033210;28;19928;-77
2022/01/05 12:26:40;;;;;;;;;;;6.80;99.90;;;;;;5034214;28;19980;-77
2022/01/05 12:29:06;;;;;;;;;;;6.80;99.90;;;;;;5018192;28;19925;-77
2022/01/05 12:31:50;;;;;;;;;;;6.70;99.90;;;;;;5014541;28;20263;-77
2022/01/05 12:34:40;;;;;;;;;;;6.70;99.90;;;;;;5030542;28;19921;-77
2022/01/05 12:37:25;;;;;;;;;;;6.60;99.90;;;;;;5033599;28;19921;-77
2022/01/05 12:39:51;;;;;;;;;;;6.80;99.90;;;;;;5033680;28;19921;-77
2022/01/05 12:42:23;;;;;;;;;;;7.40;99.90;;;;;;5032725;28;20016;-77
2022/01/05 12:44:48;;;;;;;;;;;8.40;99.90;;;;;;5013811;28;19921;-77
2022/01/05 12:47:14;;;;;;;;;;;8.80;99.90;;;;;;5013883;28;20293;-77
2022/01/05 12:49:40;;;;;;;;;;;8.90;99.90;;;;;;5022139;28;19960;-77
2022/01/05 12:52:07;;;;;;;;;;;9.00;99.90;;;;;;5033559;28;19964;-77
2022/01/05 12:54:43;;;;;;;;;;;8.70;99.90;;;;;;5053547;28;19920;-77
2022/01/05 12:57:26;;;;;;;;;;;8.40;99.90;;;;;;5037075;28;19921;-77
2022/01/05 12:59:53;;;;;;;;;;;8.00;99.90;;;;;;5036230;28;20453;-77
2022/01/05 13:02:24;;;;;;;;;;;7.60;99.90;;;;;;5037509;28;20355;-77
2022/01/05 13:04:50;;;;;;;;;;;7.30;99.90;;;;;;5070728;28;19979;-76
2022/01/05 13:07:17;;;;;;;;;;;6.80;99.90;;;;;;5026911;28;19921;-76
2022/01/05 13:09:47;;;;;;;;;;;6.70;99.90;;;;;;5022661;28;20027;-75
2022/01/05 13:12:13;;;;;;;;;;;6.60;99.90;;;;;;5024466;28;19929;-75
2022/01/05 13:14:41;;;;;;;;;;;6.40;99.90;;;;;;5053732;28;19929;-75
2022/01/05 13:17:06;;;;;;;;;;;6.40;99.90;;;;;;5070380;28;19974;-75
2022/01/05 13:19:41;;;;;;;;;;;6.40;99.90;;;;;;5032316;28;19921;-75
2022/01/05 13:22:26;;;;;;;;;;;6.40;99.90;;;;;;5037652;28;19920;-75
2022/01/05 13:25:06;;;;;;;;;;;6.50;99.90;;;;;;5053107;28;19921;-75
2022/01/05 13:27:40;;;;;;;;;;;6.50;99.90;;;;;;5035810;28;19921;-75
2022/01/05 13:30:13;;;;;;;;;;;6.50;99.90;;;;;;5035207;28;19931;-75
2022/01/05 13:32:39;;;;;;;;;;;6.50;99.90;;;;;;5016806;28;19921;-75
2022/01/05 13:35:07;;;;;;;;;;;6.40;99.90;;;;;;5016933;28;19921;-74
2022/01/05 13:37:37;;;;;;;;;;;6.30;99.90;;;;;;5019497;28;20380;-74
2022/01/05 13:40:07;;;;;;;;;;;6.10;99.90;;;;;;5020941;28;19928;-74
2022/01/05 13:42:35;;;;;;;;;;;6.00;99.90;;;;;;5032334;28;19947;-73
2022/01/05 13:45:01;;;;;;;;;;;6.00;99.90;;;;;;5036267;28;19991;-74
2022/01/05 13:47:27;;;;;;;;;;;5.90;99.90;;;;;;5036384;28;19921;-74
2022/01/05 13:50:09;;;;;;;;;;;6.00;99.90;;;;;;5035924;28;20300;-75
2022/01/05 13:52:35;;;;;;;;;;;6.10;99.90;;;;;;5033161;28;19921;-74
2022/01/05 13:55:00;;;;;;;;;;;6.10;99.90;;;;;;5019480;28;20395;-74
2022/01/05 13:57:30;;;;;;;;;;;6.00;99.90;;;;;;5023084;28;19936;-74
2022/01/05 14:00:00;;;;;;;;;;;6.10;99.90;;;;;;5034424;28;20019;-74
2022/01/05 14:02:26;;;;;;;;;;;6.30;99.90;;;;;;5032657;28;19920;-74
2022/01/05 14:04:53;;;;;;;;;;;6.50;99.90;;;;;;5027237;28;19978;-75
2022/01/05 14:07:20;;;;;;;;;;;6.50;99.90;;;;;;5052629;28;20051;-75
2022/01/05 14:10:02;;;;;;;;;;;6.50;99.90;;;;;;5050118;28;19933;-74
2022/01/05 14:12:33;;;;;;;;;;;6.40;99.90;;;;;;5032671;28;20396;-75
2022/01/05 14:14:59;;;;;;;;;;;6.30;99.90;;;;;;5016070;28;19921;-74
2022/01/05 14:17:24;;;;;;;;;;;6.20;99.90;;;;;;5016127;28;19921;-74
2022/01/05 14:19:50;;;;;;;;;;;6.20;99.90;;;;;;5031387;28;20306;-74
2022/01/05 14:22:19;;;;;;;;;;;6.10;99.90;;;;;;5032948;28;20031;-75
2022/01/05 14:24:46;;;;;;;;;;;6.10;99.90;;;;;;5029818;28;19975;-74
2022/01/05 14:27:16;;;;;;;;;;;6.00;99.90;;;;;;5034294;28;19920;-75
2022/01/05 14:29:43;;;;;;;;;;;6.00;99.90;;;;;;5052495;28;19924;-74
2022/01/05 14:32:09;;;;;;;;;;;6.00;99.90;;;;;;5035949;28;19921;-74
2022/01/05 14:34:39;;;;;;;;;;;6.00;99.90;;;;;;5035296;28;20392;-75
2022/01/05 14:37:06;;;;;;;;;;;6.00;99.90;;;;;;5025831;28;19924;-74
2022/01/05 14:39:50;;;;;;;;;;;6.00;99.90;;;;;;5051046;28;20364;-75
2022/01/05 14:42:17;;;;;;;;;;;6.00;99.90;;;;;;5034636;28;19920;-75
2022/01/05 14:44:46;;;;;;;;;;;5.90;99.90;;;;;;5022460;28;19921;-75
2022/01/05 14:47:12;;;;;;;;;;;5.90;99.90;;;;;;5027472;28;20277;-75